createdAt,value
2023-04-16T00:00:07.098Z,99771.50
2023-04-16T00:02:42.977Z,99778.78
2023-04-16T00:05:12.769Z,99783.91
2023-04-16T00:07:45.012Z,99795.66
2023-04-16T00:10:14.708Z,99799.81
2023-04-16T00:12:44.343Z,99807.66
2023-04-16T00:15:14.288Z,99803.75
2023-04-16T00:17:44.019Z,99804.75
2023-04-16T00:20:13.834Z,99806.75
2023-04-16T00:22:46.084Z,99800.94
2023-04-16T00:25:16.200Z,99800.78
2023-04-16T00:27:45.892Z,99800.81
2023-04-16T00:30:16.302Z,99799.28
2023-04-16T00:32:46.383Z,99803.63
2023-04-16T00:35:16.276Z,99810.00
2023-04-16T00:37:48.638Z,99803.94
2023-04-16T00:40:18.418Z,99799.88
2023-04-16T00:42:48.510Z,99799.31
2023-04-16T00:45:18.253Z,99791.34
2023-04-16T00:47:48.272Z,99789.69
2023-04-16T00:50:18.047Z,99787.63
2023-04-16T00:52:51.875Z,99799.88
2023-04-16T00:55:22.715Z,99806.41
2023-04-16T00:57:52.374Z,99802.81
2023-04-16T01:00:23.726Z,99791.84
2023-04-16T01:02:53.599Z,99788.72
2023-04-16T01:05:23.794Z,99790.59
2023-04-16T01:07:56.492Z,99796.81
2023-04-16T01:10:26.211Z,99797.56
2023-04-16T01:12:56.055Z,99798.91
2023-04-16T01:15:25.849Z,99792.44
2023-04-16T01:17:55.646Z,99796.81
2023-04-16T01:20:25.784Z,99789.44
2023-04-16T01:22:58.234Z,99793.34
2023-04-16T01:25:28.048Z,99792.00
2023-04-16T01:27:59.340Z,99785.25
2023-04-16T01:30:29.647Z,99781.06
2023-04-16T01:33:21.702Z,99788.19
2023-04-16T01:35:51.461Z,99784.41
2023-04-16T01:38:23.741Z,99795.06
2023-04-16T01:40:53.407Z,99792.66
2023-04-16T01:43:23.046Z,99799.06
2023-04-16T01:45:52.767Z,99801.47
2023-04-16T01:48:22.411Z,99804.19
2023-04-16T01:50:52.127Z,99798.88
2023-04-16T01:53:24.327Z,99803.09
2023-04-16T01:55:54.107Z,99811.38
2023-04-16T01:58:23.776Z,99818.25
2023-04-16T02:00:53.556Z,99812.03
2023-04-16T02:03:24.965Z,99805.41
2023-04-16T02:05:55.776Z,99812.97
2023-04-16T02:08:28.252Z,99814.66
2023-04-16T02:10:59.307Z,99816.13
2023-04-16T02:13:29.790Z,99818.16
2023-04-16T02:15:59.547Z,99823.56
2023-04-16T02:19:04.910Z,99827.94
2023-04-16T02:21:37.825Z,99831.28
2023-04-16T02:24:11.363Z,99834.38
2023-04-16T02:26:41.135Z,99838.03
2023-04-16T02:29:17.433Z,99836.44
2023-04-16T02:31:53.581Z,99839.38
2023-04-16T02:34:23.841Z,99845.03
2023-04-16T02:36:54.440Z,99842.16
2023-04-16T02:39:27.330Z,99852.22
2023-04-16T02:41:58.089Z,99849.72
2023-04-16T02:44:27.862Z,99852.91
2023-04-16T02:46:57.519Z,99839.06
2023-04-16T02:49:27.151Z,99844.53
2023-04-16T02:51:56.810Z,99847.38
2023-04-16T02:54:29.201Z,99839.84
2023-04-16T02:56:58.896Z,99839.84
2023-04-16T02:59:28.640Z,99839.25
2023-04-16T03:01:58.399Z,99851.53
2023-04-16T03:04:28.154Z,99848.47
2023-04-16T03:06:57.826Z,99855.75
2023-04-16T03:09:30.082Z,99862.38
2023-04-16T03:11:59.750Z,99858.72
2023-04-16T03:14:29.394Z,99861.00
2023-04-16T03:16:59.048Z,99863.81
2023-04-16T03:19:28.888Z,99866.09
2023-04-16T03:21:58.677Z,99877.22
2023-04-16T03:24:30.990Z,99872.44
2023-04-16T03:27:02.697Z,99871.81
2023-04-16T03:29:32.536Z,99878.34
2023-04-16T03:32:02.245Z,99881.81
2023-04-16T03:34:32.039Z,99888.44
2023-04-16T03:37:01.741Z,99884.63
2023-04-16T03:39:33.954Z,99892.34
2023-04-16T03:42:03.701Z,99876.81
2023-04-16T03:44:33.385Z,99871.44
2023-04-16T03:47:04.362Z,99870.06
2023-04-16T03:49:34.073Z,99882.03
2023-04-16T03:52:03.845Z,99881.63
2023-04-16T03:54:36.179Z,99883.69
2023-04-16T03:57:17.918Z,99888.75
2023-04-16T03:59:48.294Z,99881.69
2023-04-16T04:02:20.092Z,99895.31
2023-04-16T04:04:50.487Z,99898.72
2023-04-16T04:07:20.943Z,99904.91
2023-04-16T04:09:53.194Z,99906.47
2023-04-16T04:12:23.491Z,99900.31
2023-04-16T04:14:53.301Z,99904.44
2023-04-16T04:17:23.651Z,99900.19
2023-04-16T04:20:01.391Z,99904.06
2023-04-16T04:22:33.595Z,99903.25
2023-04-16T04:25:05.969Z,99911.44
2023-04-16T04:27:36.099Z,99912.38
2023-04-16T04:30:06.562Z,99912.03
2023-04-16T04:32:36.908Z,99921.53
2023-04-16T04:35:06.968Z,99922.81
2023-04-16T04:37:36.767Z,99933.25
2023-04-16T04:40:17.648Z,99936.69
2023-04-16T04:42:48.253Z,99929.94
2023-04-16T04:45:18.571Z,99932.31
2023-04-16T04:47:48.329Z,99931.34
2023-04-16T04:50:18.745Z,99925.56
2023-04-16T04:52:48.422Z,99933.25
2023-04-16T04:55:20.998Z,99938.38
2023-04-16T04:57:51.687Z,99938.09
2023-04-16T05:00:22.366Z,99928.97
2023-04-16T05:02:57.453Z,99929.81
2023-04-16T05:05:27.232Z,99933.47
2023-04-16T05:07:56.945Z,99939.06
2023-04-16T05:10:29.499Z,99943.59
2023-04-16T05:12:59.198Z,99943.34
2023-04-16T05:15:28.956Z,99946.91
2023-04-16T05:17:58.826Z,99953.66
2023-04-16T05:20:28.541Z,99950.94
2023-04-16T05:22:58.214Z,99952.13
2023-04-16T05:25:30.469Z,99945.47
2023-04-16T05:28:00.132Z,99947.38
2023-04-16T05:30:29.815Z,99959.16
2023-04-16T05:32:59.515Z,99960.16
2023-04-16T05:35:29.234Z,99965.53
2023-04-16T05:37:58.888Z,99959.84
2023-04-16T05:40:31.169Z,99957.81
2023-04-16T05:43:00.819Z,99955.06
2023-04-16T05:45:31.413Z,99964.91
2023-04-16T05:48:01.077Z,99963.75
2023-04-16T05:50:30.770Z,99962.00
2023-04-16T05:53:00.456Z,99967.09
2023-04-16T05:55:32.689Z,99964.06
2023-04-16T05:58:04.467Z,99983.28
2023-04-16T06:00:34.321Z,99978.56
2023-04-16T06:03:05.098Z,99978.34
2023-04-16T06:05:35.007Z,99981.72
2023-04-16T06:08:04.726Z,99983.53
2023-04-16T06:10:37.000Z,99991.78
2023-04-16T06:13:06.655Z,99990.31
2023-04-16T06:15:36.295Z,99995.06
2023-04-16T06:18:06.232Z,99998.47
2023-04-16T06:20:36.473Z,99996.31
2023-04-16T06:23:06.131Z,99997.69
2023-04-16T06:25:38.451Z,100010.25
2023-04-16T06:28:08.610Z,100019.69
2023-04-16T06:30:38.338Z,100020.88
2023-04-16T06:33:08.298Z,100025.28
2023-04-16T06:35:38.008Z,100024.50
2023-04-16T06:38:07.717Z,100028.00
2023-04-16T06:40:40.147Z,100024.75
2023-04-16T06:43:09.999Z,100030.03
2023-04-16T06:45:39.711Z,100036.91
2023-04-16T06:48:09.650Z,100044.97
2023-04-16T06:50:39.299Z,100047.53
2023-04-16T06:53:09.041Z,100048.81
2023-04-16T06:55:41.243Z,100038.97
2023-04-16T06:58:10.907Z,100044.53
2023-04-16T07:00:40.696Z,100044.09
2023-04-16T07:03:10.629Z,100052.19
2023-04-16T07:05:40.570Z,100046.38
2023-04-16T07:08:10.727Z,100044.78
2023-04-16T07:10:43.377Z,100037.47
2023-04-16T07:13:13.427Z,100042.72
2023-04-16T07:15:43.083Z,100040.19
2023-04-16T07:18:12.813Z,100037.00
2023-04-16T07:20:42.568Z,100036.84
2023-04-16T07:23:12.307Z,100050.47
2023-04-16T07:25:44.721Z,100054.41
2023-04-16T07:28:16.850Z,100049.25
2023-04-16T07:30:46.704Z,100051.75
2023-04-16T07:33:16.355Z,100051.75
2023-04-16T07:35:46.000Z,100060.34
2023-04-16T07:38:16.516Z,100055.38
2023-04-16T07:40:48.842Z,100062.34
2023-04-16T07:43:18.678Z,100065.41
2023-04-16T07:45:48.578Z,100075.56
2023-04-16T07:48:18.345Z,100067.88
2023-04-16T07:50:48.013Z,100074.66
2023-04-16T07:53:17.642Z,100078.25
2023-04-16T07:55:49.917Z,100090.72
2023-04-16T07:58:19.591Z,100074.75
2023-04-16T08:00:50.856Z,100078.81
2023-04-16T08:03:20.996Z,100080.16
2023-04-16T08:05:50.897Z,100076.03
2023-04-16T08:08:20.545Z,100083.09
2023-04-16T08:10:55.965Z,100080.28
2023-04-16T08:13:25.778Z,100083.09
2023-04-16T08:15:55.427Z,100083.47
2023-04-16T08:18:25.399Z,100092.31
2023-04-16T08:20:55.114Z,100094.56
2023-04-16T08:23:24.822Z,100085.69
2023-04-16T08:25:57.460Z,100094.50
2023-04-16T08:28:27.236Z,100093.69
2023-04-16T08:30:57.005Z,100098.13
2023-04-16T08:33:26.954Z,100108.00
2023-04-16T08:35:56.677Z,100111.03
2023-04-16T08:38:26.565Z,100116.06
2023-04-16T08:41:01.516Z,100109.97
2023-04-16T08:43:36.576Z,100118.53
2023-04-16T08:46:08.205Z,100120.44
2023-04-16T08:48:38.285Z,100121.13
2023-04-16T08:51:12.627Z,100104.69
2023-04-16T08:53:51.439Z,100115.81
2023-04-16T08:56:25.984Z,100120.53
2023-04-16T08:58:58.550Z,100118.31
2023-04-16T09:01:29.462Z,100119.69
2023-04-16T09:03:59.693Z,100117.44
2023-04-16T09:06:31.586Z,100127.56
2023-04-16T09:09:04.898Z,100125.19
2023-04-16T09:11:37.713Z,100134.22
2023-04-16T09:14:07.803Z,100126.69
2023-04-16T09:16:38.374Z,100130.28
2023-04-16T09:19:08.395Z,100139.69
2023-04-16T09:21:39.212Z,100141.66
2023-04-16T09:24:10.873Z,100145.13
2023-04-16T09:26:44.340Z,100146.59
2023-04-16T09:29:14.693Z,100143.81
2023-04-16T09:31:44.560Z,100145.84
2023-04-16T09:34:14.214Z,100136.25
2023-04-16T09:36:43.945Z,100140.88
2023-04-16T09:39:22.186Z,100135.44
2023-04-16T09:41:56.392Z,100139.38
2023-04-16T09:44:38.532Z,100138.41
2023-04-16T09:47:10.586Z,100145.03
2023-04-16T09:49:44.886Z,100144.38
2023-04-16T09:52:16.791Z,100145.88
2023-04-16T09:54:50.665Z,100155.66
2023-04-16T09:57:27.902Z,100151.13
2023-04-16T10:00:03.779Z,100154.50
2023-04-16T10:02:34.946Z,100157.09
2023-04-16T10:05:05.832Z,100159.44
2023-04-16T10:07:38.350Z,100168.66
2023-04-16T10:10:09.459Z,100164.72
2023-04-16T10:12:41.915Z,100165.00
2023-04-16T10:15:12.403Z,100173.50
2023-04-16T10:17:42.250Z,100169.03
2023-04-16T10:20:12.866Z,100168.66
2023-04-16T10:22:42.601Z,100161.41
2023-04-16T10:25:13.240Z,100174.28
2023-04-16T10:27:46.934Z,100154.25
2023-04-16T10:30:19.665Z,100164.91
2023-04-16T10:32:49.794Z,100158.19
2023-04-16T10:35:22.705Z,100164.50
2023-04-16T10:37:52.353Z,100169.78
2023-04-16T10:40:26.660Z,100162.88
2023-04-16T10:43:02.889Z,100157.41
2023-04-16T10:45:40.924Z,100151.88
2023-04-16T10:48:12.031Z,100153.16
2023-04-16T10:50:41.855Z,100165.78
2023-04-16T10:53:22.095Z,100165.47
2023-04-16T10:56:15.604Z,100173.94
2023-04-16T10:58:47.822Z,100178.59
2023-04-16T11:01:17.637Z,100179.28
2023-04-16T11:03:50.433Z,100173.69
2023-04-16T11:06:27.167Z,100183.69
2023-04-16T11:08:57.372Z,100180.06
2023-04-16T11:11:27.042Z,100182.19
2023-04-16T11:14:00.482Z,100182.13
2023-04-16T11:16:30.192Z,100189.09
2023-04-16T11:19:00.229Z,100188.94
2023-04-16T11:21:30.066Z,100189.19
2023-04-16T11:24:00.724Z,100185.81
2023-04-16T11:26:31.814Z,100199.59
2023-04-16T11:29:05.023Z,100196.38
2023-04-16T11:31:35.019Z,100192.72
2023-04-16T11:34:05.017Z,100195.94
2023-04-16T11:36:46.243Z,100204.03
2023-04-16T11:39:16.191Z,100199.00
2023-04-16T11:41:46.610Z,100200.56
2023-04-16T11:44:28.140Z,100201.72
2023-04-16T11:46:58.140Z,100207.06
2023-04-16T11:49:30.963Z,100197.78
2023-04-16T11:52:01.258Z,100194.66
2023-04-16T11:54:34.920Z,100196.72
2023-04-16T11:57:04.685Z,100192.41
2023-04-16T11:59:37.307Z,100193.66
2023-04-16T12:02:38.392Z,100200.97
2023-04-16T12:05:10.315Z,100196.94
2023-04-16T12:07:49.085Z,100203.59
2023-04-16T12:10:18.747Z,100202.50
2023-04-16T12:12:48.568Z,100201.84
2023-04-16T12:15:21.135Z,100206.69
2023-04-16T12:17:54.616Z,100195.44
2023-04-16T12:20:24.521Z,100203.09
2023-04-16T12:22:57.215Z,100202.03
2023-04-16T12:25:27.555Z,100211.31
2023-04-16T12:27:58.717Z,100207.44
2023-04-16T12:30:31.482Z,100207.91
2023-04-16T12:33:17.583Z,100219.28
2023-04-16T12:35:47.824Z,100211.59
2023-04-16T12:38:17.540Z,100217.78
2023-04-16T12:40:47.246Z,100222.81
2023-04-16T12:43:17.056Z,100220.94
2023-04-16T12:45:49.599Z,100224.69
2023-04-16T12:48:19.369Z,100219.28
2023-04-16T12:50:49.088Z,100234.44
2023-04-16T12:53:18.770Z,100223.25
2023-04-16T12:55:48.470Z,100231.28
2023-04-16T12:58:18.141Z,100227.50
2023-04-16T13:00:50.733Z,100222.88
2023-04-16T13:03:21.293Z,100220.59
2023-04-16T13:05:51.496Z,100218.53
2023-04-16T13:08:21.143Z,100214.88
2023-04-16T13:10:51.108Z,100216.72
2023-04-16T13:13:20.785Z,100214.84
2023-04-16T13:15:53.084Z,100222.91
2023-04-16T13:18:23.207Z,100216.09
2023-04-16T13:20:52.909Z,100214.63
2023-04-16T13:23:22.803Z,100232.47
2023-04-16T13:25:52.490Z,100235.75
2023-04-16T13:28:22.341Z,100234.78
2023-04-16T13:30:55.106Z,100240.84
2023-04-16T13:33:25.046Z,100235.41
2023-04-16T13:35:54.871Z,100227.44
2023-04-16T13:38:24.682Z,100224.44
2023-04-16T13:40:54.348Z,100221.81
2023-04-16T13:43:24.345Z,100229.72
2023-04-16T13:45:56.604Z,100219.47
2023-04-16T13:48:26.326Z,100245.41
2023-04-16T13:50:56.196Z,100228.97
2023-04-16T13:53:25.893Z,100232.88
2023-04-16T13:55:55.620Z,100231.69
2023-04-16T13:58:25.432Z,100228.13
2023-04-16T14:00:57.840Z,100230.16
2023-04-16T14:03:28.356Z,100234.91
2023-04-16T14:05:58.230Z,100231.94
2023-04-16T14:08:27.969Z,100232.44
2023-04-16T14:10:58.526Z,100228.63
2023-04-16T14:13:28.492Z,100224.94
2023-04-16T14:16:00.872Z,100228.63
2023-04-16T14:18:30.582Z,100233.75
2023-04-16T14:21:02.276Z,100226.81
2023-04-16T14:23:31.965Z,100225.66
2023-04-16T14:26:01.812Z,100222.69
2023-04-16T14:28:31.785Z,100221.25
2023-04-16T14:31:04.115Z,100222.09
2023-04-16T14:33:33.886Z,100217.94
2023-04-16T14:36:03.732Z,100220.53
2023-04-16T14:38:33.670Z,100221.16
2023-04-16T14:41:03.351Z,100213.66
2023-04-16T14:43:33.097Z,100210.69
2023-04-16T14:46:06.651Z,100209.50
2023-04-16T14:48:36.553Z,100213.16
2023-04-16T14:51:07.354Z,100206.19
2023-04-16T14:53:37.244Z,100216.72
2023-04-16T14:56:07.940Z,100217.69
2023-04-16T14:58:39.435Z,100220.91
2023-04-16T15:01:13.809Z,100217.88
2023-04-16T15:03:44.306Z,100211.25
2023-04-16T15:06:14.724Z,100212.41
2023-04-16T15:08:44.462Z,100205.50
2023-04-16T15:11:14.126Z,100197.78
2023-04-16T15:13:43.812Z,100201.09
2023-04-16T15:16:16.139Z,100197.28
2023-04-16T15:18:45.981Z,100194.84
2023-04-16T15:21:15.773Z,100201.16
2023-04-16T15:23:45.672Z,100200.19
2023-04-16T15:26:15.548Z,100191.88
2023-04-16T15:28:45.240Z,100192.81
2023-04-16T15:31:17.580Z,100193.56
2023-04-16T15:33:47.380Z,100202.91
2023-04-16T15:36:17.137Z,100206.94
2023-04-16T15:38:46.756Z,100207.31
2023-04-16T15:41:16.491Z,100203.75
2023-04-16T15:43:46.441Z,100209.25
2023-04-16T15:46:18.909Z,100210.91
2023-04-16T15:48:48.605Z,100215.47
2023-04-16T15:51:18.580Z,100204.75
2023-04-16T15:53:49.630Z,100207.88
2023-04-16T15:56:19.798Z,100208.97
2023-04-16T15:58:49.435Z,100214.38
2023-04-16T16:01:22.581Z,100208.13
2023-04-16T16:03:52.579Z,100217.47
2023-04-16T16:06:22.790Z,100207.69
2023-04-16T16:08:52.628Z,100199.81
2023-04-16T16:11:22.414Z,100200.28
2023-04-16T16:13:52.142Z,100190.41
2023-04-16T16:16:24.589Z,100205.66
2023-04-16T16:18:54.283Z,100201.06
2023-04-16T16:21:24.151Z,100202.19
2023-04-16T16:23:53.829Z,100211.44
2023-04-16T16:26:23.534Z,100200.19
2023-04-16T16:28:53.434Z,100207.34
2023-04-16T16:31:28.477Z,100215.75
2023-04-16T16:33:58.262Z,100211.88
2023-04-16T16:36:28.223Z,100220.50
2023-04-16T16:38:58.139Z,100225.97
2023-04-16T16:41:27.904Z,100233.91
2023-04-16T16:43:58.956Z,100236.84
2023-04-16T16:46:31.247Z,100235.78
2023-04-16T16:49:01.110Z,100231.09
2023-04-16T16:51:31.197Z,100223.06
2023-04-16T16:54:00.847Z,100224.91
2023-04-16T16:56:30.812Z,100215.47
2023-04-16T16:59:00.523Z,100209.91
2023-04-16T17:01:33.174Z,100210.63
2023-04-16T17:04:03.057Z,100212.41
2023-04-16T17:06:33.570Z,100212.53
2023-04-16T17:09:03.353Z,100209.59
2023-04-16T17:11:33.077Z,100216.50
2023-04-16T17:14:02.814Z,100210.06
2023-04-16T17:16:35.145Z,100209.28
2023-04-16T17:19:05.056Z,100214.53
2023-04-16T17:21:35.296Z,100222.81
2023-04-16T17:24:04.956Z,100218.81
2023-04-16T17:26:34.838Z,100229.97
2023-04-16T17:29:04.712Z,100230.19
2023-04-16T17:31:36.996Z,100233.81
2023-04-16T17:34:06.832Z,100232.94
2023-04-16T17:36:37.028Z,100237.75
2023-04-16T17:39:06.710Z,100240.06
2023-04-16T17:41:36.360Z,100246.72
2023-04-16T17:44:06.205Z,100258.44
2023-04-16T17:46:38.513Z,100274.38
2023-04-16T17:49:08.538Z,100287.22
2023-04-16T17:51:38.207Z,100303.06
2023-04-16T17:54:08.066Z,100314.78
2023-04-16T17:56:38.117Z,100320.97
2023-04-16T17:59:08.016Z,100332.63
2023-04-16T18:01:41.073Z,100335.78
2023-04-16T18:04:11.110Z,100339.59
2023-04-16T18:06:41.177Z,100337.34
2023-04-16T18:09:10.820Z,100341.75
2023-04-16T18:11:40.541Z,100339.97
2023-04-16T18:14:11.775Z,100341.25
2023-04-16T18:16:44.627Z,100346.84
2023-04-16T18:19:14.528Z,100339.72
2023-04-16T18:21:44.292Z,100346.41
2023-04-16T18:24:15.307Z,100341.59
2023-04-16T18:26:47.071Z,100339.38
2023-04-16T18:29:18.098Z,100351.53
2023-04-16T18:31:50.727Z,100336.94
2023-04-16T18:34:20.878Z,100336.88
2023-04-16T18:36:51.372Z,100317.06
2023-04-16T18:39:21.174Z,100316.78
2023-04-16T18:41:51.032Z,100291.47
2023-04-16T18:44:20.911Z,100293.22
2023-04-16T18:46:53.201Z,100288.28
2023-04-16T18:49:23.036Z,100288.09
2023-04-16T18:51:55.869Z,100290.06
2023-04-16T18:54:25.930Z,100290.84
2023-04-16T18:56:57.330Z,100290.16
2023-04-16T18:59:28.027Z,100305.06
2023-04-16T19:02:00.306Z,100311.44
2023-04-16T19:04:29.995Z,100304.09
2023-04-16T19:06:59.758Z,100309.41
2023-04-16T19:09:29.417Z,100317.00
2023-04-16T19:11:59.049Z,100307.94
2023-04-16T19:14:28.669Z,100309.31
2023-04-16T19:17:01.002Z,100312.63
2023-04-16T19:19:30.764Z,100314.06
2023-04-16T19:22:00.527Z,100319.75
2023-04-16T19:24:30.894Z,100320.28
2023-04-16T19:27:02.786Z,100327.09
2023-04-16T19:29:35.774Z,100321.84
2023-04-16T19:32:08.432Z,100325.81
2023-04-16T19:34:38.169Z,100332.50
2023-04-16T19:37:07.862Z,100329.19
2023-04-16T19:39:37.572Z,100335.94
2023-04-16T19:42:07.355Z,100325.97
2023-04-16T19:44:37.153Z,100334.91
2023-04-16T19:47:09.684Z,100341.38
2023-04-16T19:49:39.435Z,100356.09
2023-04-16T19:52:09.135Z,100345.34
2023-04-16T19:54:38.806Z,100344.81
2023-04-16T19:57:08.524Z,100353.09
2023-04-16T19:59:38.440Z,100360.84
2023-04-16T20:02:10.878Z,100361.72
2023-04-16T20:04:40.551Z,100367.06
2023-04-16T20:07:10.248Z,100362.59
2023-04-16T20:09:39.896Z,100362.91
2023-04-16T20:12:09.914Z,100359.09
2023-04-16T20:14:39.638Z,100356.03
2023-04-16T20:17:12.034Z,100344.69
2023-04-16T20:19:41.796Z,100350.78
2023-04-16T20:22:11.502Z,100358.59
2023-04-16T20:24:41.712Z,100349.16
2023-04-16T20:27:11.492Z,100345.34
2023-04-16T20:29:41.178Z,100344.50
2023-04-16T20:32:13.406Z,100347.25
2023-04-16T20:34:43.067Z,100347.13
2023-04-16T20:37:12.732Z,100351.44
2023-04-16T20:39:42.370Z,100351.53
2023-04-16T20:42:12.291Z,100346.00
2023-04-16T20:44:42.971Z,100351.22
2023-04-16T20:47:17.110Z,100340.72
2023-04-16T20:49:47.626Z,100346.78
2023-04-16T20:52:17.689Z,100351.53
2023-04-16T20:54:47.873Z,100346.06
2023-04-16T20:57:17.515Z,100345.34
2023-04-16T20:59:47.580Z,100353.81
2023-04-16T21:02:20.411Z,100349.56
2023-04-16T21:04:50.548Z,100349.81
2023-04-16T21:07:20.281Z,100348.63
2023-04-16T21:09:49.961Z,100351.31
2023-04-16T21:12:19.670Z,100352.56
2023-04-16T21:14:49.336Z,100352.78
2023-04-16T21:17:22.702Z,100349.41
2023-04-16T21:19:52.531Z,100349.91
2023-04-16T21:22:22.273Z,100357.53
2023-04-16T21:24:52.006Z,100355.41
2023-04-16T21:27:21.654Z,100342.66
2023-04-16T21:29:52.022Z,100355.28
2023-04-16T21:32:24.358Z,100353.31
2023-04-16T21:34:54.098Z,100345.75
2023-04-16T21:37:23.893Z,100345.19
2023-04-16T21:39:53.527Z,100347.91
2023-04-16T21:42:23.233Z,100342.56
2023-04-16T21:44:53.006Z,100332.19
2023-04-16T21:47:25.384Z,100336.19
2023-04-16T21:49:55.173Z,100347.00
2023-04-16T21:52:25.318Z,100348.38
2023-04-16T21:54:55.022Z,100347.22
2023-04-16T21:57:24.647Z,100348.84
2023-04-16T21:59:54.293Z,100349.56
2023-04-16T22:02:27.452Z,100341.00
2023-04-16T22:04:57.290Z,100345.28
2023-04-16T22:07:27.415Z,100349.66
2023-04-16T22:09:57.207Z,100344.59
2023-04-16T22:12:26.900Z,100350.97
2023-04-16T22:15:02.458Z,100340.41
2023-04-16T22:17:36.242Z,100342.19
2023-04-16T22:20:11.664Z,100349.69
2023-04-16T22:22:41.862Z,100353.81
2023-04-16T22:25:12.495Z,100351.72
2023-04-16T22:27:42.173Z,100341.38
2023-04-16T22:30:13.399Z,100348.25
2023-04-16T22:32:45.630Z,100350.38
2023-04-16T22:35:15.708Z,100351.34
2023-04-16T22:37:45.701Z,100346.91
2023-04-16T22:40:16.091Z,100331.63
2023-04-16T22:42:45.736Z,100340.75
2023-04-16T22:45:15.487Z,100328.34
2023-04-16T22:47:47.758Z,100337.22
2023-04-16T22:50:17.678Z,100334.31
2023-04-16T22:52:47.305Z,100323.72
2023-04-16T22:55:16.940Z,100325.53
2023-04-16T22:57:47.647Z,100338.63
2023-04-16T23:00:18.422Z,100336.56
2023-04-16T23:02:50.756Z,100334.53
2023-04-16T23:05:20.508Z,100344.34
2023-04-16T23:07:50.207Z,100338.94
2023-04-16T23:10:20.156Z,100346.00
2023-04-16T23:12:49.786Z,100338.75
2023-04-16T23:15:19.542Z,100335.28
2023-04-16T23:17:52.289Z,100328.97
2023-04-16T23:20:22.141Z,100332.50
2023-04-16T23:22:52.935Z,100334.47
2023-04-16T23:25:23.751Z,100345.47
2023-04-16T23:27:53.429Z,100351.53
2023-04-16T23:30:23.329Z,100352.63
2023-04-16T23:32:55.580Z,100350.28
2023-04-16T23:35:25.561Z,100345.19
2023-04-16T23:37:55.189Z,100350.78
2023-04-16T23:40:24.826Z,100337.75
2023-04-16T23:42:54.531Z,100348.25
2023-04-16T23:45:24.313Z,100346.22
2023-04-16T23:47:56.621Z,100343.28
2023-04-16T23:50:26.250Z,100338.13
2023-04-16T23:52:55.890Z,100349.88
2023-04-16T23:55:25.870Z,100344.63
2023-04-16T23:57:55.484Z,100353.75
